Time;durP1;ratioP1;P1;durP2;ratioP2;P2;SDS_P1;SDS_P2;PMS_P1;PMS_P2;Temp;Humidity;BMP_temperature;BMP_pressure;BME280_temperature;BME280_humidity;BME280_pressure;Samples;Min_cycle;Max_cycle;Signal;HPM_P1;HPM_P2
2023/05/11 00:01:04;;;;;;;20.30;7.65;;;13.10;99.90;;;;;;5114581;27;20464;-41
2023/05/11 00:03:31;;;;;;;20.95;8.07;;;13.10;99.90;;;;;;5109245;28;20024;-41
2023/05/11 00:05:57;;;;;;;22.42;9.23;;;13.00;99.90;;;;;;5093898;28;20477;-41
2023/05/11 00:08:22;;;;;;;20.58;7.80;;;13.00;99.90;;;;;;5098005;27;20660;-44
2023/05/11 00:10:48;;;;;;;24.92;8.95;;;12.90;99.90;;;;;;5094955;28;20032;-43
2023/05/11 00:13:14;;;;;;;28.00;9.25;;;12.90;99.90;;;;;;5094280;28;20020;-40
2023/05/11 00:15:40;;;;;;;24.02;8.73;;;12.80;99.90;;;;;;5093430;28;20106;-43
2023/05/11 00:18:05;;;;;;;35.00;9.90;;;12.80;99.90;;;;;;5097145;28;20107;-45
2023/05/11 00:20:31;;;;;;;27.27;9.48;;;12.70;99.90;;;;;;5095536;28;20032;-44
2023/05/11 00:23:00;;;;;;;29.77;9.38;;;12.70;99.90;;;;;;5108552;28;20521;-45
2023/05/11 00:25:25;;;;;;;29.45;8.93;;;12.70;99.90;;;;;;5097890;28;20024;-43
2023/05/11 00:28:00;;;;;;;24.60;9.07;;;12.70;99.90;;;;;;5093166;28;20106;-38
2023/05/11 00:30:26;;;;;;;27.35;9.68;;;12.70;99.90;;;;;;5110991;28;20038;-44
2023/05/11 00:32:51;;;;;;;21.17;8.48;;;12.70;99.90;;;;;;5113571;28;20044;-43
2023/05/11 00:35:17;;;;;;;26.02;9.32;;;12.80;99.90;;;;;;5108615;28;20430;-40
2023/05/11 00:37:43;;;;;;;23.60;8.48;;;12.90;99.90;;;;;;5093147;28;20028;-42
2023/05/11 00:40:09;;;;;;;19.23;7.85;;;12.90;99.90;;;;;;5093253;28;20024;-40
2023/05/11 00:42:35;;;;;;;24.02;8.05;;;12.90;99.90;;;;;;5093771;28;20020;-42
2023/05/11 00:45:01;;;;;;;26.65;9.45;;;12.90;99.90;;;;;;5107544;28;20023;-41
2023/05/11 00:47:27;;;;;;;19.70;8.18;;;12.90;99.90;;;;;;5110495;28;20468;-44
2023/05/11 00:49:53;;;;;;;22.50;7.97;;;12.90;99.90;;;;;;5096069;28;20012;-41
2023/05/11 00:52:20;;;;;;;21.10;8.43;;;12.90;99.90;;;;;;5113307;28;20042;-45
2023/05/11 00:54:46;;;;;;;17.65;8.43;;;12.90;99.90;;;;;;5112208;28;20035;-38
2023/05/11 00:57:13;;;;;;;20.50;7.95;;;13.00;99.90;;;;;;5093361;28;20035;-41
2023/05/11 00:59:39;;;;;;;21.88;9.20;;;13.00;99.90;;;;;;5093052;28;20031;-42
2023/05/11 01:02:05;;;;;;;24.95;8.70;;;12.90;99.90;;;;;;5118176;28;20019;-39
2023/05/11 01:04:31;;;;;;;22.00;8.32;;;12.90;99.90;;;;;;5101761;27;20107;-40
2023/05/11 01:07:29;;;;;;;22.60;8.35;;;12.80;99.90;;;;;;5092299;28;20029;-43
2023/05/11 01:10:10;;;;;;;19.58;8.10;;;12.80;99.90;;;;;;5087868;28;20507;-41
2023/05/11 01:13:03;;;;;;;28.65;8.88;;;12.70;99.90;;;;;;5092575;28;20024;-42
2023/05/11 01:15:38;;;;;;;26.08;8.00;;;12.70;99.90;;;;;;5092693;28;20036;-44
2023/05/11 01:18:18;;;;;;;18.75;7.53;;;12.60;99.90;;;;;;5093054;28;20483;-41
2023/05/11 01:20:47;;;;;;;19.27;7.07;;;12.60;99.90;;;;;;5093181;28;20103;-41
2023/05/11 01:23:37;;;;;;;20.90;6.90;;;12.60;99.90;;;;;;5092706;28;20495;-43
2023/05/11 01:26:31;;;;;;;18.55;7.43;;;12.60;99.90;;;;;;5097908;28;20548;-41
2023/05/11 01:29:34;;;;;;;20.83;8.20;;;12.60;99.90;;;;;;5092506;28;20024;-42
2023/05/11 01:32:05;;;;;;;18.60;7.70;;;12.60;99.90;;;;;;5092337;28;20500;-40
2023/05/11 01:34:34;;;;;;;21.67;7.43;;;12.60;99.90;;;;;;5096601;28;20020;-45
2023/05/11 01:37:08;;;;;;;22.80;8.95;;;12.60;99.90;;;;;;5100300;28;20504;-43
2023/05/11 01:39:41;;;;;;;26.35;8.48;;;12.60;99.90;;;;;;5094786;28;20027;-42
2023/05/11 01:42:10;;;;;;;20.55;8.75;;;12.50;99.90;;;;;;5095993;28;20111;-43
2023/05/11 01:44:41;;;;;;;22.15;9.13;;;12.50;99.90;;;;;;5106217;28;20507;-43
2023/05/11 01:47:08;;;;;;;27.60;10.07;;;12.50;99.90;;;;;;5111551;28;20022;-40
2023/05/11 01:49:40;;;;;;;27.92;10.10;;;12.50;99.90;;;;;;5115150;28;20016;-45
2023/05/11 01:52:07;;;;;;;25.17;9.48;;;12.50;99.90;;;;;;5116280;28;20020;-43
2023/05/11 01:54:35;;;;;;;26.98;9.13;;;12.50;99.90;;;;;;5109439;28;20503;-42
2023/05/11 01:57:02;;;;;;;22.55;8.93;;;12.50;99.90;;;;;;5108485;28;20024;-45
2023/05/11 01:59:30;;;;;;;22.83;8.30;;;12.60;99.90;;;;;;5107261;28;20110;-41
2023/05/11 02:01:57;;;;;;;23.88;8.38;;;12.60;99.90;;;;;;5095623;28;20043;-44
2023/05/11 02:04:24;;;;;;;21.40;9.13;;;12.60;99.90;;;;;;5095798;28;20108;-43
2023/05/11 02:06:52;;;;;;;19.13;7.33;;;12.60;99.90;;;;;;5096176;28;20541;-43
2023/05/11 02:09:19;;;;;;;21.98;7.68;;;12.70;99.90;;;;;;5095634;28;20494;-43
2023/05/11 02:11:47;;;;;;;24.08;8.40;;;12.70;99.90;;;;;;5100878;28;20050;-44
2023/05/11 02:14:14;;;;;;;;;;;12.70;99.90;;;;;;5113598;28;20024;-43
2023/05/11 02:16:40;;;;;;;23.70;8.50;;;12.70;99.90;;;;;;5114474;28;19948;-43
2023/05/11 02:19:07;;;;;;;23.95;8.30;;;12.70;99.90;;;;;;5116074;28;20023;-40
2023/05/11 02:21:35;;;;;;;22.27;9.07;;;12.70;99.90;;;;;;5114947;28;20036;-41
2023/05/11 02:24:06;;;;;;;19.23;8.00;;;12.70;99.90;;;;;;5114475;28;20472;-44
2023/05/11 02:26:31;;;;;;;17.02;7.80;;;12.60;99.90;;;;;;5095511;28;20491;-42
2023/05/11 02:28:57;;;;;;;20.02;8.45;;;12.60;99.90;;;;;;5098547;28;20024;-46
2023/05/11 02:31:34;;;;;;;16.95;7.45;;;12.70;99.90;;;;;;5094964;28;20476;-43
2023/05/11 02:34:08;;;;;;;26.50;9.32;;;12.60;99.90;;;;;;5095404;28;20052;-42
2023/05/11 02:36:37;;;;;;;20.35;7.57;;;12.70;99.90;;;;;;5112461;28;20034;-42
2023/05/11 02:39:08;;;;;;;22.05;8.52;;;12.60;99.90;;;;;;5114004;28;20028;-43
2023/05/11 02:41:40;;;;;;;27.13;10.65;;;12.60;99.90;;;;;;5096825;28;20572;-42
2023/05/11 02:44:10;;;;;;;20.63;8.40;;;12.60;99.90;;;;;;5106954;28;20383;-43
2023/05/11 02:46:38;;;;;;;27.33;9.18;;;12.60;99.90;;;;;;5103817;28;20031;-40
2023/05/11 02:49:08;;;;;;;27.13;9.85;;;12.60;99.90;;;;;;5113517;28;20361;-43
2023/05/11 02:51:40;;;;;;;24.05;9.45;;;12.60;99.90;;;;;;5103622;28;20067;-40
2023/05/11 02:54:09;;;;;;;21.73;8.48;;;12.60;99.90;;;;;;5114155;28;20065;-45
2023/05/11 02:56:35;;;;;;;24.25;8.75;;;12.60;99.90;;;;;;5113157;28;20035;-41
2023/05/11 02:59:01;;;;;;;18.70;7.97;;;12.60;99.90;;;;;;5110734;28;20106;-39
2023/05/11 03:01:28;;;;;;;20.67;7.40;;;12.60;99.90;;;;;;5098154;27;20033;-41
2023/05/11 03:03:54;;;;;;;24.85;8.07;;;12.60;99.90;;;;;;5100248;28;20032;-42
2023/05/11 03:06:19;;;;;;;17.05;7.28;;;12.50;99.90;;;;;;5102232;28;20038;-43
2023/05/11 03:08:46;;;;;;;23.23;8.60;;;12.60;99.90;;;;;;5094466;28;20123;-44
2023/05/11 03:11:14;;;;;;;23.40;7.32;;;12.60;99.90;;;;;;5113496;28;20475;-42
2023/05/11 03:13:41;;;;;;;27.20;9.57;;;12.50;99.90;;;;;;5111744;28;20028;-43
2023/05/11 03:16:10;;;;;;;20.25;8.07;;;12.50;99.90;;;;;;5094530;28;20032;-42
2023/05/11 03:18:36;;;;;;;26.52;8.68;;;12.50;99.90;;;;;;5094475;28;20599;-41
2023/05/11 03:21:02;;;;;;;26.08;8.57;;;12.50;99.90;;;;;;5094388;28;20127;-42
2023/05/11 03:23:29;;;;;;;24.52;8.60;;;12.50;99.90;;;;;;5103417;28;20456;-41
2023/05/11 03:25:56;;;;;;;17.88;7.95;;;12.50;99.90;;;;;;5095539;28;20024;-42
2023/05/11 03:28:24;;;;;;;24.52;9.32;;;12.50;99.90;;;;;;5094978;28;20484;-39
2023/05/11 03:30:51;;;;;;;20.05;9.07;;;12.50;99.90;;;;;;5102991;28;20028;-43
2023/05/11 03:33:17;;;;;;;21.50;9.25;;;12.50;99.90;;;;;;5094194;28;20059;-45
2023/05/11 03:35:45;;;;;;;20.70;8.38;;;12.50;99.90;;;;;;5093402;28;20028;-40
2023/05/11 03:38:11;;;;;;;24.15;9.90;;;12.50;99.90;;;;;;5107958;28;20387;-44
2023/05/11 03:40:39;;;;;;;28.63;9.63;;;12.50;99.90;;;;;;5099342;28;20465;-41
2023/05/11 03:43:06;;;;;;;;;;;12.50;99.90;;;;;;5094461;28;20585;-43
2023/05/11 03:45:33;;;;;;;22.60;9.25;;;12.50;99.90;;;;;;5110964;28;19908;-40
2023/05/11 03:47:59;;;;;;;28.55;9.52;;;12.40;99.90;;;;;;5113576;28;20484;-41
2023/05/11 03:50:26;;;;;;;26.38;8.93;;;12.40;99.90;;;;;;5114267;28;20095;-40
2023/05/11 03:52:52;;;;;;;24.87;9.23;;;12.40;99.90;;;;;;5112749;28;20110;-41
2023/05/11 03:55:19;;;;;;;21.48;8.57;;;12.40;99.90;;;;;;5111379;28;20360;-42
2023/05/11 03:57:45;;;;;;;22.60;8.52;;;12.40;99.90;;;;;;5114155;27;20387;-41
2023/05/11 04:00:11;;;;;;;23.20;8.40;;;12.40;99.90;;;;;;5112612;28;20024;-44
2023/05/11 04:02:37;;;;;;;22.45;7.68;;;12.50;99.90;;;;;;5104983;28;20027;-45
2023/05/11 04:05:08;;;;;;;25.23;8.88;;;12.50;99.90;;;;;;5093569;28;20507;-42
2023/05/11 04:07:35;;;;;;;23.00;9.25;;;12.50;99.90;;;;;;5104383;28;20028;-41
2023/05/11 04:10:02;;;;;;;17.85;7.60;;;12.60;99.90;;;;;;5098561;28;20035;-44
2023/05/11 04:12:28;;;;;;;20.95;8.55;;;12.60;99.90;;;;;;5093765;28;20026;-42
2023/05/11 04:14:53;;;;;;;23.92;7.93;;;12.70;99.90;;;;;;5107160;28;20095;-43
2023/05/11 04:17:19;;;;;;;18.23;7.65;;;12.70;99.90;;;;;;5113826;28;20073;-44
2023/05/11 04:19:44;;;;;;;19.40;7.97;;;12.70;99.90;;;;;;5106277;28;20024;-45
2023/05/11 04:22:11;;;;;;;19.98;8.63;;;12.70;99.90;;;;;;5100381;28;20020;-40
2023/05/11 04:24:37;;;;;;;24.27;9.73;;;12.70;99.90;;;;;;5096008;28;20063;-42
2023/05/11 04:27:03;;;;;;;22.05;9.05;;;12.70;99.90;;;;;;5096261;28;20475;-42
2023/05/11 04:29:29;;;;;;;29.60;8.07;;;12.70;99.90;;;;;;5098821;28;20015;-41
2023/05/11 04:31:55;;;;;;;24.33;8.88;;;12.70;99.90;;;;;;5110250;28;20032;-42
2023/05/11 04:34:20;;;;;;;20.40;9.07;;;12.70;99.90;;;;;;5109676;28;20488;-42
2023/05/11 04:36:47;;;;;;;23.35;7.82;;;12.70;99.90;;;;;;5110871;28;20035;-42
2023/05/11 04:39:13;;;;;;;22.48;8.70;;;12.80;99.90;;;;;;5112361;28;20472;-39
2023/05/11 04:41:39;;;;;;;22.52;9.20;;;12.90;99.90;;;;;;5097961;28;20032;-41
2023/05/11 04:44:04;;;;;;;19.58;8.45;;;12.90;99.90;;;;;;5093702;28;20019;-42
2023/05/11 04:46:30;;;;;;;18.45;7.97;;;12.80;99.90;;;;;;5109137;28;20024;-42
2023/05/11 04:48:55;;;;;;;28.92;10.52;;;12.80;99.90;;;;;;5112061;28;20375;-42
2023/05/11 04:51:21;;;;;;;21.25;9.48;;;12.90;99.90;;;;;;5093543;28;20548;-42
2023/05/11 04:53:47;;;;;;;24.45;10.57;;;12.90;99.90;;;;;;5092514;28;20028;-41
2023/05/11 04:56:12;;;;;;;24.20;9.77;;;12.90;99.90;;;;;;5097928;28;20038;-41
2023/05/11 04:58:38;;;;;;;26.35;9.75;;;12.90;99.90;;;;;;5111299;28;20394;-44
2023/05/11 05:01:03;;;;;;;25.67;9.00;;;12.90;99.90;;;;;;5108204;28;20034;-43
2023/05/11 05:03:29;;;;;;;32.13;11.23;;;13.00;99.90;;;;;;5113021;28;20043;-45
2023/05/11 05:05:55;;;;;;;30.00;9.68;;;13.00;99.90;;;;;;5103956;28;20111;-41
2023/05/11 05:08:20;;;;;;;27.35;8.98;;;12.90;99.90;;;;;;5114963;28;20380;-44
2023/05/11 05:10:46;;;;;;;25.88;9.63;;;13.00;99.90;;;;;;5114193;28;20020;-46
2023/05/11 05:13:12;;;;;;;35.08;10.90;;;13.00;99.90;;;;;;5109506;28;20054;-45
2023/05/11 05:15:38;;;;;;;27.20;10.70;;;13.00;99.90;;;;;;5108378;28;20027;-43
2023/05/11 05:18:03;;;;;;;32.40;10.65;;;12.90;99.90;;;;;;5115496;28;20020;-45
2023/05/11 05:20:29;;;;;;;32.67;10.35;;;12.90;99.90;;;;;;5114552;27;20034;-47
2023/05/11 05:22:55;;;;;;;30.33;10.52;;;12.90;99.90;;;;;;5121765;27;20023;-41
2023/05/11 05:25:21;;;;;;;37.47;10.93;;;12.90;99.90;;;;;;5103679;28;20068;-41
2023/05/11 05:27:46;;;;;;;28.98;9.90;;;12.90;99.90;;;;;;5096882;28;20020;-45
2023/05/11 05:30:12;;;;;;;23.48;9.25;;;13.00;99.90;;;;;;5097130;28;20065;-40
2023/05/11 05:32:38;;;;;;;38.17;11.10;;;13.00;99.90;;;;;;5099039;28;20032;-37
2023/05/11 05:35:04;;;;;;;32.85;12.15;;;13.10;99.90;;;;;;5116839;28;20058;-44
2023/05/11 05:37:29;;;;;;;34.88;10.25;;;13.00;99.90;;;;;;5096463;28;20024;-45
2023/05/11 05:39:55;;;;;;;26.73;9.15;;;13.10;99.90;;;;;;5101820;28;20392;-43
2023/05/11 05:42:21;;;;;;;22.73;10.02;;;13.10;99.90;;;;;;5095380;28;20028;-42
2023/05/11 05:44:46;;;;;;;29.35;11.05;;;13.20;99.90;;;;;;5105046;28;20024;-43
2023/05/11 05:47:12;;;;;;;36.90;11.98;;;13.20;99.90;;;;;;5116669;27;20070;-48
2023/05/11 05:49:38;;;;;;;37.45;11.50;;;13.20;99.90;;;;;;5101425;28;20074;-45
2023/05/11 05:52:04;;;;;;;32.22;11.23;;;13.20;99.90;;;;;;5116517;28;20246;-40
2023/05/11 05:54:30;;;;;;;29.30;11.57;;;13.30;99.90;;;;;;5109449;28;20499;-44
2023/05/11 05:56:55;;;;;;;38.45;13.00;;;13.30;99.90;;;;;;5113944;28;20031;-41
2023/05/11 05:59:23;;;;;;;32.72;11.60;;;13.30;99.90;;;;;;5114325;28;20039;-45
2023/05/11 06:01:49;;;;;;;37.70;11.52;;;13.30;99.90;;;;;;5098783;28;20036;-46
2023/05/11 06:04:15;;;;;;;34.42;12.45;;;13.40;99.90;;;;;;5116077;28;20142;-43
2023/05/11 06:06:41;;;;;;;38.40;12.13;;;13.40;99.90;;;;;;5116630;28;20047;-41
2023/05/11 06:09:06;;;;;;;34.85;11.73;;;13.50;99.90;;;;;;5116036;27;20030;-43
2023/05/11 06:11:32;;;;;;;32.58;11.07;;;13.50;99.90;;;;;;5100995;28;20028;-41
2023/05/11 06:13:58;;;;;;;39.47;12.32;;;13.60;99.90;;;;;;5096471;28;20476;-43
2023/05/11 06:16:24;;;;;;;37.35;12.25;;;13.60;99.90;;;;;;5113944;28;20106;-43
2023/05/11 06:18:50;;;;;;;28.38;9.15;;;13.60;99.90;;;;;;5115492;28;20034;-41
2023/05/11 06:21:15;;;;;;;33.50;11.43;;;13.70;99.90;;;;;;5102426;28;20027;-41
2023/05/11 06:23:41;;;;;;;43.85;12.38;;;13.70;99.90;;;;;;5095853;28;20074;-42
2023/05/11 06:26:07;;;;;;;32.80;11.98;;;13.70;99.90;;;;;;5113292;28;20012;-46
2023/05/11 06:28:32;;;;;;;45.08;13.32;;;13.70;99.90;;;;;;5115156;28;20073;-41
2023/05/11 06:30:58;;;;;;;38.97;12.10;;;13.80;99.90;;;;;;5108053;28;20028;-41
2023/05/11 06:33:24;;;;;;;42.80;13.70;;;13.90;99.90;;;;;;5093891;28;20028;-43
2023/05/11 06:35:50;;;;;;;39.85;12.23;;;14.00;99.90;;;;;;5095496;28;20480;-41
2023/05/11 06:38:16;;;;;;;39.05;11.63;;;14.20;99.90;;;;;;5097241;28;20074;-43
2023/05/11 06:40:41;;;;;;;25.73;11.40;;;14.40;99.90;;;;;;5098932;28;20073;-47
2023/05/11 06:43:07;;;;;;;33.45;12.18;;;14.50;99.90;;;;;;5101285;28;20028;-43
2023/05/11 06:45:33;;;;;;;35.55;10.52;;;14.50;99.90;;;;;;5113668;28;20024;-43
2023/05/11 06:47:58;;;;;;;36.30;10.90;;;14.70;99.90;;;;;;5115406;28;20084;-41
2023/05/11 06:50:24;;;;;;;34.00;10.90;;;14.80;99.90;;;;;;5113647;28;20476;-41
2023/05/11 06:52:50;;;;;;;35.58;11.15;;;14.70;99.90;;;;;;5114481;28;20032;-38
2023/05/11 06:55:15;;;;;;;34.20;10.75;;;14.60;99.90;;;;;;5094375;28;20408;-41
2023/05/11 06:57:41;;;;;;;32.83;10.63;;;14.50;99.90;;;;;;5095714;28;20028;-43
2023/05/11 07:00:07;;;;;;;39.10;10.93;;;14.50;99.90;;;;;;5100617;28;20028;-44
2023/05/11 07:02:33;;;;;;;26.77;11.65;;;14.50;99.90;;;;;;5107891;28;20028;-44
2023/05/11 07:04:59;;;;;;;28.52;10.10;;;14.50;99.90;;;;;;5097460;28;20043;-41
2023/05/11 07:07:24;;;;;;;30.92;11.25;;;14.40;99.90;;;;;;5103229;28;20878;-44
2023/05/11 07:09:50;;;;;;;32.00;11.23;;;14.40;99.90;;;;;;5097727;28;20030;-42
2023/05/11 07:12:15;;;;;;;26.98;10.93;;;14.50;99.90;;;;;;5094215;28;20034;-42
2023/05/11 07:14:41;;;;;;;24.15;10.07;;;14.60;99.90;;;;;;5105151;28;20494;-41
2023/05/11 07:17:07;;;;;;;27.20;9.00;;;14.60;99.90;;;;;;5093937;28;20028;-37
2023/05/11 07:19:32;;;;;;;24.02;9.73;;;14.70;99.90;;;;;;5096796;28;20020;-42
2023/05/11 07:21:58;;;;;;;29.90;9.30;;;14.80;99.90;;;;;;5105674;28;20115;-46
2023/05/11 07:24:23;;;;;;;16.38;7.53;;;14.80;99.90;;;;;;5099373;28;20090;-42
2023/05/11 07:26:50;;;;;;;23.27;8.73;;;14.90;99.90;;;;;;5103243;28;20024;-44
2023/05/11 07:29:16;;;;;;;24.83;8.80;;;15.00;99.90;;;;;;5107769;28;20016;-42
2023/05/11 07:31:42;;;;;;;20.67;8.65;;;15.10;99.90;;;;;;5105379;28;20031;-43
2023/05/11 07:34:07;;;;;;;21.05;8.52;;;15.10;99.90;;;;;;5105099;28;20085;-45
2023/05/11 07:36:33;;;;;;;18.65;8.63;;;15.00;99.90;;;;;;5107021;28;20024;-41
2023/05/11 07:39:00;;;;;;;17.80;7.65;;;15.00;99.90;;;;;;5094164;28;20520;-42
2023/05/11 07:41:26;;;;;;;18.70;8.27;;;15.00;99.90;;;;;;5107852;28;20031;-42
2023/05/11 07:43:53;;;;;;;15.95;7.45;;;15.10;99.90;;;;;;5114629;28;20058;-41
2023/05/11 07:46:18;;;;;;;17.92;7.47;;;15.20;99.90;;;;;;5105386;28;20284;-42
2023/05/11 07:48:45;;;;;;;20.10;8.27;;;15.30;99.90;;;;;;5095203;28;20423;-44
2023/05/11 07:51:10;;;;;;;21.00;7.05;;;15.40;99.90;;;;;;5097238;28;20028;-43
2023/05/11 07:53:36;;;;;;;14.23;7.38;;;15.60;99.90;;;;;;5100008;28;20043;-45
2023/05/11 07:56:03;;;;;;;11.48;6.40;;;15.60;99.90;;;;;;5112413;28;20024;-44
2023/05/11 07:58:29;;;;;;;15.65;6.68;;;15.60;99.90;;;;;;5114250;28;20032;-41
2023/05/11 08:00:56;;;;;;;15.73;6.47;;;15.40;99.90;;;;;;5098272;28;20028;-43
2023/05/11 08:03:21;;;;;;;13.20;5.80;;;15.40;99.90;;;;;;5104701;28;20020;-44
2023/05/11 08:05:47;;;;;;;15.23;5.70;;;15.30;99.90;;;;;;5097069;28;20373;-43
2023/05/11 08:08:14;;;;;;;9.57;5.25;;;15.40;99.90;;;;;;5095333;28;20020;-42
2023/05/11 08:10:40;;;;;;;13.07;5.93;;;15.40;99.90;;;;;;5100086;28;20024;-42
2023/05/11 08:13:06;;;;;;;10.50;5.70;;;15.50;99.90;;;;;;5104492;28;20131;-49
2023/05/11 08:15:32;;;;;;;13.38;6.45;;;15.50;99.90;;;;;;5113639;28;20502;-44
2023/05/11 08:17:59;;;;;;;9.98;5.75;;;15.30;99.90;;;;;;5113718;28;20028;-42
2023/05/11 08:20:25;;;;;;;10.52;5.20;;;15.30;99.90;;;;;;5102074;28;20024;-42
2023/05/11 08:22:51;;;;;;;12.73;6.00;;;15.30;99.90;;;;;;5105389;28;20020;-42
2023/05/11 08:25:16;;;;;;;10.38;5.43;;;15.50;99.90;;;;;;5102885;28;20030;-42
2023/05/11 08:27:42;;;;;;;11.35;6.07;;;15.50;99.90;;;;;;5098122;28;20402;-43
2023/05/11 08:30:08;;;;;;;9.13;5.70;;;15.60;99.90;;;;;;5095611;28;20124;-44
2023/05/11 08:32:35;;;;;;;10.18;5.43;;;15.60;99.90;;;;;;5100973;28;20066;-43
2023/05/11 08:35:02;;;;;;;9.50;5.43;;;15.70;99.90;;;;;;5097706;28;20511;-44
2023/05/11 08:37:28;;;;;;;9.02;5.03;;;15.80;99.90;;;;;;5104345;28;20028;-43
2023/05/11 08:39:54;;;;;;;13.68;5.45;;;15.80;99.90;;;;;;5093265;28;20028;-45
2023/05/11 08:42:26;;;;;;;9.25;4.90;;;15.90;99.90;;;;;;5103156;28;20023;-49
2023/05/11 08:44:58;;;;;;;17.58;5.88;;;16.00;99.90;;;;;;5113349;28;20073;-43
2023/05/11 08:47:24;;;;;;;10.93;5.75;;;16.00;99.90;;;;;;5112414;28;20472;-49
2023/05/11 08:49:51;;;;;;;14.77;6.93;;;16.00;99.90;;;;;;5108859;28;20461;-48
2023/05/11 08:52:17;;;;;;;16.10;6.43;;;16.10;99.90;;;;;;5099046;28;20491;-42
2023/05/11 08:54:43;;;;;;;11.98;6.13;;;16.20;99.90;;;;;;5099185;28;20040;-46
2023/05/11 08:57:11;;;;;;;9.43;5.22;;;16.90;99.90;;;;;;5093175;28;20035;-40
2023/05/11 08:59:37;;;;;;;7.28;4.60;;;17.40;99.90;;;;;;5092201;28;20028;-43
2023/05/11 09:02:03;;;;;;;10.40;5.72;;;17.80;99.90;;;;;;5089388;28;20031;-45
2023/05/11 09:04:30;;;;;;;11.70;6.20;;;17.90;99.90;;;;;;5104302;28;20121;-47
2023/05/11 09:06:56;;;;;;;13.77;6.60;;;17.80;99.90;;;;;;5113194;28;20081;-47
2023/05/11 09:09:22;;;;;;;8.30;5.47;;;17.60;99.90;;;;;;5104574;28;20020;-49
2023/05/11 09:11:49;;;;;;;8.40;5.10;;;17.30;99.90;;;;;;5092747;28;20506;-47
2023/05/11 09:14:15;;;;;;;11.80;5.35;;;17.40;99.90;;;;;;5092417;28;20595;-49
2023/05/11 09:16:40;;;;;;;10.00;4.85;;;17.40;99.90;;;;;;5097101;28;20027;-47
2023/05/11 09:19:06;;;;;;;10.00;5.47;;;17.60;99.90;;;;;;5094282;28;20027;-46
2023/05/11 09:21:33;;;;;;;10.55;5.25;;;17.90;99.90;;;;;;5097445;28;20443;-46
2023/05/11 09:23:59;;;;;;;10.43;5.68;;;18.30;99.90;;;;;;5108656;28;20051;-47
2023/05/11 09:26:28;;;;;;;9.70;5.25;;;18.50;99.90;;;;;;5109675;28;20034;-41
2023/05/11 09:28:56;;;;;;;7.00;4.82;;;18.50;99.90;;;;;;5094477;28;20024;-47
2023/05/11 09:31:45;;;;;;;10.95;4.68;;;18.80;99.90;;;;;;5091539;28;20386;-46
2023/05/11 09:34:11;;;;;;;8.10;4.75;;;19.10;99.90;;;;;;5107473;28;20119;-46
2023/05/11 09:36:37;;;;;;;2.70;2.25;;;19.20;99.90;;;;;;5111981;28;20032;-45
2023/05/11 09:39:03;;;;;;;3.80;3.10;;;19.60;99.90;;;;;;5097858;28;20032;-48
2023/05/11 09:41:30;;;;;;;5.85;3.67;;;19.90;99.90;;;;;;5092457;28;20089;-44
2023/05/11 09:44:14;;;;;;;5.65;3.65;;;20.00;99.90;;;;;;5091432;28;20392;-47
2023/05/11 09:46:42;;;;;;;7.43;4.07;;;20.00;99.90;;;;;;5092702;28;20052;-43
2023/05/11 09:49:08;;;;;;;7.18;4.07;;;19.90;99.90;;;;;;5107849;28;20031;-46
2023/05/11 09:51:36;;;;;;;7.50;3.33;;;19.60;99.90;;;;;;5107514;28;20539;-46
2023/05/11 09:54:21;;;;;;;8.15;4.15;;;19.40;99.90;;;;;;5104041;28;20058;-43
2023/05/11 09:56:53;;;;;;;7.90;4.63;;;19.00;99.90;;;;;;5096404;28;20495;-47
2023/05/11 09:59:39;;;;;;;7.63;5.13;;;18.40;99.90;;;;;;5096053;28;20521;-45
2023/05/11 10:02:28;;;;;;;9.80;5.40;;;18.20;99.90;;;;;;5107528;28;20027;-45
2023/05/11 10:04:56;;;;;;;10.75;4.85;;;18.20;99.90;;;;;;5102892;28;20043;-44
2023/05/11 10:07:32;;;;;;;6.45;3.58;;;18.20;99.90;;;;;;5108153;28;20111;-48
2023/05/11 10:10:00;;;;;;;9.27;4.68;;;18.00;99.90;;;;;;5096393;28;20384;-43
2023/05/11 10:12:27;;;;;;;7.95;4.47;;;17.90;99.90;;;;;;5096201;28;20051;-45
2023/05/11 10:15:01;;;;;;;7.95;5.10;;;18.00;99.90;;;;;;5115154;28;20031;-45
2023/05/11 10:17:27;;;;;;;10.80;5.85;;;18.30;99.90;;;;;;5115784;28;20464;-45
2023/05/11 10:19:57;;;;;;;4.77;3.53;;;18.50;99.90;;;;;;5115446;28;20472;-45
2023/05/11 10:22:27;;;;;;;10.95;5.55;;;18.60;99.90;;;;;;5115483;28;20443;-44
2023/05/11 10:24:55;;;;;;;11.68;5.35;;;18.80;99.90;;;;;;5107952;28;20028;-41
2023/05/11 10:27:21;;;;;;;6.38;4.85;;;19.50;99.90;;;;;;5114878;28;20023;-42
2023/05/11 10:29:48;;;;;;;7.68;5.00;;;19.90;99.90;;;;;;5115313;28;20058;-46
2023/05/11 10:32:16;;;;;;;8.80;4.70;;;20.20;99.90;;;;;;5116188;28;20440;-49
2023/05/11 10:34:43;;;;;;;6.53;3.92;;;19.90;99.90;;;;;;5115996;28;20422;-43
2023/05/11 10:37:09;;;;;;;6.93;4.03;;;20.10;99.90;;;;;;5115361;28;20107;-46
2023/05/11 10:39:36;;;;;;;8.20;4.13;;;20.00;99.90;;;;;;5113743;28;20042;-46
2023/05/11 10:42:36;;;;;;;5.80;3.72;;;20.20;99.90;;;;;;5104174;28;20119;-45
2023/05/11 10:45:07;;;;;;;7.10;4.45;;;20.10;99.90;;;;;;5103357;28;20511;-44
2023/05/11 10:47:57;;;;;;;5.50;4.05;;;20.00;99.90;;;;;;5095734;28;20028;-48
2023/05/11 10:50:49;;;;;;;8.82;5.15;;;19.50;99.90;;;;;;5097234;28;20134;-48
2023/05/11 10:53:42;;;;;;;8.77;3.90;;;19.10;99.90;;;;;;5099077;27;20519;-49
2023/05/11 10:56:41;;;;;;;9.02;4.70;;;18.70;99.90;;;;;;5101908;28;20036;-43
2023/05/11 10:59:28;;;;;;;9.63;5.07;;;18.50;99.90;;;;;;5094742;28;20499;-48
2023/05/11 11:01:57;;;;;;;11.25;6.45;;;18.30;99.90;;;;;;5098107;28;20035;-45
2023/05/11 11:04:23;;;;;;;17.65;8.65;;;18.10;99.90;;;;;;5108513;28;20100;-47
2023/05/11 11:07:04;;;;;;;16.90;8.95;;;17.90;99.90;;;;;;5094697;28;20028;-45
2023/05/11 11:09:52;;;;;;;20.25;9.23;;;17.40;99.90;;;;;;5109932;28;20028;-45
2023/05/11 11:12:19;;;;;;;16.67;8.80;;;17.00;99.90;;;;;;5114982;28;20020;-45
2023/05/11 11:15:05;;;;;;;17.25;8.30;;;16.70;99.90;;;;;;5114073;28;20506;-44
2023/05/11 11:17:34;;;;;;;11.40;6.43;;;16.40;99.90;;;;;;5115241;28;20024;-44
2023/05/11 11:20:03;;;;;;;13.00;6.75;;;16.20;99.90;;;;;;5106270;28;20380;-43
2023/05/11 11:22:37;;;;;;;11.02;6.70;;;16.10;99.90;;;;;;5102988;28;20456;-45
2023/05/11 11:25:13;;;;;;;12.82;6.05;;;15.90;99.90;;;;;;5094734;28;20495;-44
2023/05/11 11:27:39;;;;;;;12.55;6.07;;;15.80;99.90;;;;;;5098309;28;20476;-46
2023/05/11 11:30:24;;;;;;;15.18;6.22;;;15.70;99.90;;;;;;5097918;28;20060;-43
2023/05/11 11:33:14;;;;;;;12.07;6.70;;;15.50;99.90;;;;;;5099539;28;20472;-43
2023/05/11 11:35:43;;;;;;;13.27;6.03;;;15.40;99.90;;;;;;5091208;28;20494;-44
2023/05/11 11:38:10;;;;;;;11.18;5.70;;;15.30;99.90;;;;;;5100355;28;20498;-45
2023/05/11 11:40:41;;;;;;;8.15;5.13;;;15.20;99.90;;;;;;5114667;28;20464;-46
2023/05/11 11:43:16;;;;;;;7.93;4.75;;;15.10;99.90;;;;;;5103564;28;20486;-43
2023/05/11 11:45:55;;;;;;;8.63;4.72;;;15.10;99.90;;;;;;5093896;28;20035;-46
2023/05/11 11:48:39;;;;;;;7.50;4.50;;;15.00;99.90;;;;;;5094321;28;20460;-43
2023/05/11 11:51:06;;;;;;;12.82;4.78;;;15.00;99.90;;;;;;5114119;28;20495;-46
2023/05/11 11:53:41;;;;;;;8.67;4.23;;;15.00;99.90;;;;;;5113560;28;20031;-46
2023/05/11 11:56:25;;;;;;;8.18;4.68;;;15.10;99.90;;;;;;5096338;28;20783;-45
2023/05/11 11:58:50;;;;;;;7.95;4.13;;;15.20;99.90;;;;;;5093781;28;20028;-46
2023/05/11 12:01:26;;;;;;;7.00;4.10;;;15.20;99.90;;;;;;5093897;28;20384;-45
2023/05/11 12:04:12;;;;;;;7.25;4.35;;;15.20;99.90;;;;;;5092505;28;20076;-48
2023/05/11 12:06:39;;;;;;;7.75;4.63;;;15.20;99.90;;;;;;5094035;28;20395;-46
2023/05/11 12:09:05;;;;;;;8.38;4.05;;;15.20;99.90;;;;;;5093664;28;20208;-44
2023/05/11 12:11:31;;;;;;;6.97;4.05;;;15.10;99.90;;;;;;5093975;28;20032;-42
2023/05/11 12:13:59;;;;;;;6.22;3.90;;;15.10;99.90;;;;;;5094919;28;20028;-43
2023/05/11 12:16:25;;;;;;;14.48;5.07;;;15.20;99.90;;;;;;5113704;28;20645;-43
2023/05/11 12:18:55;;;;;;;12.80;4.53;;;15.20;99.90;;;;;;5114126;28;20055;-44
2023/05/11 12:21:23;;;;;;;11.35;5.28;;;15.00;99.90;;;;;;5113896;28;20030;-48
2023/05/11 12:23:56;;;;;;;8.70;4.95;;;14.70;99.90;;;;;;5112758;28;20016;-44
2023/05/11 12:26:24;;;;;;;8.70;4.85;;;14.50;99.90;;;;;;5111372;28;20123;-43
2023/05/11 12:28:51;;;;;;;11.73;5.60;;;14.40;99.90;;;;;;5106586;28;20491;-44
2023/05/11 12:31:17;;;;;;;9.35;4.65;;;14.30;99.90;;;;;;5099050;28;20458;-44
2023/05/11 12:33:47;;;;;;;12.85;5.35;;;14.30;99.90;;;;;;5113606;28;20031;-46
2023/05/11 12:36:17;;;;;;;10.23;4.90;;;14.30;99.90;;;;;;5095398;28;20028;-45
2023/05/11 12:38:47;;;;;;;7.63;4.45;;;14.30;99.90;;;;;;5111655;28;20030;-44
2023/05/11 12:41:22;;;;;;;6.65;3.75;;;14.30;99.90;;;;;;5104109;27;20024;-42
2023/05/11 12:43:50;;;;;;;7.13;3.88;;;14.40;99.90;;;;;;5101834;28;20123;-43
2023/05/11 12:46:17;;;;;;;5.15;3.95;;;14.30;99.90;;;;;;5092365;28;20020;-43